sensor_id;sensor_type;location;lat;lon;timestamp;temperature;humidity
67759;SHT31;54562;47.620;18.786;2022-10-20T00:01:26;6.39;72.00
67759;SHT31;54562;47.620;18.786;2022-10-20T00:04:35;6.33;71.85
67759;SHT31;54562;47.620;18.786;2022-10-20T00:07:43;6.30;72.01
67759;SHT31;54562;47.620;18.786;2022-10-20T00:10:54;6.28;72.72
67759;SHT31;54562;47.620;18.786;2022-10-20T00:14:03;6.30;73.50
67759;SHT31;54562;47.620;18.786;2022-10-20T00:17:11;6.32;73.85
67759;SHT31;54562;47.620;18.786;2022-10-20T00:20:19;6.33;73.84
67759;SHT31;54562;47.620;18.786;2022-10-20T00:23:28;6.35;73.86
67759;SHT31;54562;47.620;18.786;2022-10-20T00:26:36;6.37;73.82
67759;SHT31;54562;47.620;18.786;2022-10-20T00:29:44;6.40;74.07
67759;SHT31;54562;47.620;18.786;2022-10-20T00:32:54;6.38;73.53
67759;SHT31;54562;47.620;18.786;2022-10-20T00:36:03;6.33;73.35
67759;SHT31;54562;47.620;18.786;2022-10-20T00:39:16;6.33;74.13
67759;SHT31;54562;47.620;18.786;2022-10-20T00:42:25;6.34;73.82
67759;SHT31;54562;47.620;18.786;2022-10-20T00:45:33;6.36;74.51
67759;SHT31;54562;47.620;18.786;2022-10-20T00:48:42;6.38;74.58
67759;SHT31;54562;47.620;18.786;2022-10-20T00:51:56;6.38;74.12
67759;SHT31;54562;47.620;18.786;2022-10-20T00:55:05;6.36;73.79
67759;SHT31;54562;47.620;18.786;2022-10-20T00:58:16;6.32;74.26
67759;SHT31;54562;47.620;18.786;2022-10-20T01:01:25;6.28;74.47
67759;SHT31;54562;47.620;18.786;2022-10-20T01:04:33;6.25;74.46
67759;SHT31;54562;47.620;18.786;2022-10-20T01:07:45;6.20;74.13
67759;SHT31;54562;47.620;18.786;2022-10-20T01:10:56;6.20;74.71
67759;SHT31;54562;47.620;18.786;2022-10-20T01:14:23;6.21;74.99
67759;SHT31;54562;47.620;18.786;2022-10-20T01:17:44;6.22;74.86
67759;SHT31;54562;47.620;18.786;2022-10-20T01:24:48;6.19;74.44
67759;SHT31;54562;47.620;18.786;2022-10-20T01:28:19;6.18;74.76
67759;SHT31;54562;47.620;18.786;2022-10-20T01:31:38;6.19;74.92
67759;SHT31;54562;47.620;18.786;2022-10-20T01:34:53;6.17;74.81
67759;SHT31;54562;47.620;18.786;2022-10-20T01:38:13;6.17;74.93
67759;SHT31;54562;47.620;18.786;2022-10-20T01:41:32;6.18;75.03
67759;SHT31;54562;47.620;18.786;2022-10-20T01:44:46;6.13;74.37
67759;SHT31;54562;47.620;18.786;2022-10-20T01:47:58;6.10;74.83
67759;SHT31;54562;47.620;18.786;2022-10-20T01:51:11;6.10;75.31
67759;SHT31;54562;47.620;18.786;2022-10-20T01:54:20;6.08;75.23
67759;SHT31;54562;47.620;18.786;2022-10-20T01:57:34;6.04;75.30
67759;SHT31;54562;47.620;18.786;2022-10-20T02:00:58;5.98;74.79
67759;SHT31;54562;47.620;18.786;2022-10-20T02:04:17;5.94;75.00
67759;SHT31;54562;47.620;18.786;2022-10-20T02:07:37;5.95;75.47
67759;SHT31;54562;47.620;18.786;2022-10-20T02:10:47;5.95;75.13
67759;SHT31;54562;47.620;18.786;2022-10-20T02:13:56;5.91;75.13
67759;SHT31;54562;47.620;18.786;2022-10-20T02:17:06;5.88;75.61
67759;SHT31;54562;47.620;18.786;2022-10-20T02:20:19;5.89;75.92
67759;SHT31;54562;47.620;18.786;2022-10-20T02:23:28;5.90;76.07
67759;SHT31;54562;47.620;18.786;2022-10-20T02:26:41;5.90;75.64
67759;SHT31;54562;47.620;18.786;2022-10-20T02:29:52;5.87;75.59
67759;SHT31;54562;47.620;18.786;2022-10-20T02:33:04;5.83;75.55
67759;SHT31;54562;47.620;18.786;2022-10-20T02:36:14;5.80;75.63
67759;SHT31;54562;47.620;18.786;2022-10-20T02:39:28;5.77;75.29
67759;SHT31;54562;47.620;18.786;2022-10-20T02:42:36;5.77;75.84
67759;SHT31;54562;47.620;18.786;2022-10-20T02:45:45;5.77;75.80
67759;SHT31;54562;47.620;18.786;2022-10-20T02:48:54;5.75;76.04
67759;SHT31;54562;47.620;18.786;2022-10-20T02:52:02;5.77;76.29
67759;SHT31;54562;47.620;18.786;2022-10-20T02:55:10;5.80;76.53
67759;SHT31;54562;47.620;18.786;2022-10-20T02:58:18;5.84;76.41
67759;SHT31;54562;47.620;18.786;2022-10-20T03:01:26;5.86;76.53
67759;SHT31;54562;47.620;18.786;2022-10-20T03:04:34;5.88;76.04
67759;SHT31;54562;47.620;18.786;2022-10-20T03:07:42;5.88;75.94
67759;SHT31;54562;47.620;18.786;2022-10-20T03:10:50;5.90;76.41
67759;SHT31;54562;47.620;18.786;2022-10-20T03:13:59;5.91;76.62
67759;SHT31;54562;47.620;18.786;2022-10-20T03:17:07;5.92;76.71
67759;SHT31;54562;47.620;18.786;2022-10-20T03:20:15;5.91;76.70
67759;SHT31;54562;47.620;18.786;2022-10-20T03:23:23;5.92;76.68
67759;SHT31;54562;47.620;18.786;2022-10-20T03:26:31;5.91;76.56
67759;SHT31;54562;47.620;18.786;2022-10-20T03:29:39;5.92;76.43
67759;SHT31;54562;47.620;18.786;2022-10-20T03:32:47;5.95;76.48
67759;SHT31;54562;47.620;18.786;2022-10-20T03:35:56;5.95;76.38
67759;SHT31;54562;47.620;18.786;2022-10-20T03:39:04;5.93;76.34
67759;SHT31;54562;47.620;18.786;2022-10-20T03:42:12;5.93;76.20
67759;SHT31;54562;47.620;18.786;2022-10-20T03:45:20;5.90;76.35
67759;SHT31;54562;47.620;18.786;2022-10-20T03:48:28;5.88;76.26
67759;SHT31;54562;47.620;18.786;2022-10-20T03:51:36;5.89;76.39
67759;SHT31;54562;47.620;18.786;2022-10-20T03:54:44;5.91;76.18
67759;SHT31;54562;47.620;18.786;2022-10-20T03:57:53;5.92;76.31
67759;SHT31;54562;47.620;18.786;2022-10-20T04:01:02;5.94;76.43
67759;SHT31;54562;47.620;18.786;2022-10-20T04:04:11;5.95;76.63
67759;SHT31;54562;47.620;18.786;2022-10-20T04:07:19;5.95;76.82
67759;SHT31;54562;47.620;18.786;2022-10-20T04:10:27;5.95;76.72
67759;SHT31;54562;47.620;18.786;2022-10-20T04:13:35;5.93;76.88
67759;SHT31;54562;47.620;18.786;2022-10-20T04:16:43;5.91;76.49
67759;SHT31;54562;47.620;18.786;2022-10-20T04:19:52;5.87;76.41
67759;SHT31;54562;47.620;18.786;2022-10-20T04:23:00;5.83;76.32
67759;SHT31;54562;47.620;18.786;2022-10-20T04:26:09;5.82;76.64
67759;SHT31;54562;47.620;18.786;2022-10-20T04:29:18;5.81;76.81
67759;SHT31;54562;47.620;18.786;2022-10-20T04:32:32;5.77;76.88
67759;SHT31;54562;47.620;18.786;2022-10-20T04:35:58;5.75;76.59
67759;SHT31;54562;47.620;18.786;2022-10-20T04:39:20;5.72;76.26
67759;SHT31;54562;47.620;18.786;2022-10-20T04:42:46;5.67;76.18
67759;SHT31;54562;47.620;18.786;2022-10-20T04:46:09;5.64;76.67
67759;SHT31;54562;47.620;18.786;2022-10-20T04:49:36;5.64;76.57
67759;SHT31;54562;47.620;18.786;2022-10-20T04:52:49;5.61;76.49
67759;SHT31;54562;47.620;18.786;2022-10-20T04:56:03;5.59;76.59
67759;SHT31;54562;47.620;18.786;2022-10-20T05:02:49;5.59;77.07
67759;SHT31;54562;47.620;18.786;2022-10-20T05:06:08;5.57;76.79
67759;SHT31;54562;47.620;18.786;2022-10-20T05:09:35;5.56;76.73
67759;SHT31;54562;47.620;18.786;2022-10-20T05:12:51;5.55;76.98
67759;SHT31;54562;47.620;18.786;2022-10-20T05:16:08;5.53;76.95
67759;SHT31;54562;47.620;18.786;2022-10-20T05:19:22;5.49;76.82
67759;SHT31;54562;47.620;18.786;2022-10-20T05:22:38;5.47;76.80
67759;SHT31;54562;47.620;18.786;2022-10-20T05:25:50;5.47;76.96
67759;SHT31;54562;47.620;18.786;2022-10-20T05:28:59;5.51;77.05
67759;SHT31;54562;47.620;18.786;2022-10-20T05:32:11;5.52;76.57
67759;SHT31;54562;47.620;18.786;2022-10-20T05:35:18;5.49;76.40
67759;SHT31;54562;47.620;18.786;2022-10-20T05:38:26;5.49;76.58
67759;SHT31;54562;47.620;18.786;2022-10-20T05:41:38;5.46;76.47
67759;SHT31;54562;47.620;18.786;2022-10-20T05:44:47;5.43;76.29
67759;SHT31;54562;47.620;18.786;2022-10-20T05:47:55;5.42;76.53
67759;SHT31;54562;47.620;18.786;2022-10-20T05:51:10;5.44;76.71
67759;SHT31;54562;47.620;18.786;2022-10-20T05:54:21;5.44;76.77
67759;SHT31;54562;47.620;18.786;2022-10-20T05:57:29;5.49;76.88
67759;SHT31;54562;47.620;18.786;2022-10-20T06:00:37;5.56;77.08
67759;SHT31;54562;47.620;18.786;2022-10-20T06:03:56;5.69;77.10
67759;SHT31;54562;47.620;18.786;2022-10-20T06:07:05;5.85;76.80
67759;SHT31;54562;47.620;18.786;2022-10-20T06:10:13;6.01;76.92
67759;SHT31;54562;47.620;18.786;2022-10-20T06:13:21;6.19;77.07
67759;SHT31;54562;47.620;18.786;2022-10-20T06:16:29;6.35;77.12
67759;SHT31;54562;47.620;18.786;2022-10-20T06:19:37;6.53;77.33
67759;SHT31;54562;47.620;18.786;2022-10-20T06:22:45;6.72;76.97
67759;SHT31;54562;47.620;18.786;2022-10-20T06:25:53;6.94;76.98
67759;SHT31;54562;47.620;18.786;2022-10-20T06:29:08;7.15;76.20
67759;SHT31;54562;47.620;18.786;2022-10-20T06:32:19;7.37;75.80
67759;SHT31;54562;47.620;18.786;2022-10-20T06:35:27;7.59;75.26
67759;SHT31;54562;47.620;18.786;2022-10-20T06:38:37;7.80;74.98
67759;SHT31;54562;47.620;18.786;2022-10-20T06:41:47;8.02;74.79
67759;SHT31;54562;47.620;18.786;2022-10-20T06:44:57;8.25;74.52
67759;SHT31;54562;47.620;18.786;2022-10-20T06:48:05;8.44;74.07
67759;SHT31;54562;47.620;18.786;2022-10-20T06:51:14;8.62;73.91
67759;SHT31;54562;47.620;18.786;2022-10-20T06:54:24;8.82;73.85
67759;SHT31;54562;47.620;18.786;2022-10-20T06:57:32;9.00;73.43
67759;SHT31;54562;47.620;18.786;2022-10-20T07:00:40;9.14;72.87
67759;SHT31;54562;47.620;18.786;2022-10-20T07:03:48;9.27;72.63
67759;SHT31;54562;47.620;18.786;2022-10-20T07:06:59;9.36;72.38
67759;SHT31;54562;47.620;18.786;2022-10-20T07:10:08;9.45;72.18
67759;SHT31;54562;47.620;18.786;2022-10-20T07:13:16;9.56;72.13
67759;SHT31;54562;47.620;18.786;2022-10-20T07:16:25;9.67;71.75
67759;SHT31;54562;47.620;18.786;2022-10-20T07:19:35;9.77;71.67
67759;SHT31;54562;47.620;18.786;2022-10-20T07:22:43;9.86;71.45
67759;SHT31;54562;47.620;18.786;2022-10-20T07:25:51;9.99;71.36
67759;SHT31;54562;47.620;18.786;2022-10-20T07:29:05;10.06;70.69
67759;SHT31;54562;47.620;18.786;2022-10-20T07:32:15;10.15;70.64
67759;SHT31;54562;47.620;18.786;2022-10-20T07:35:23;10.27;70.77
67759;SHT31;54562;47.620;18.786;2022-10-20T07:38:33;10.36;70.63
67759;SHT31;54562;47.620;18.786;2022-10-20T07:41:40;10.40;70.24
67759;SHT31;54562;47.620;18.786;2022-10-20T07:44:50;10.50;70.03
67759;SHT31;54562;47.620;18.786;2022-10-20T07:47:58;10.59;69.75
67759;SHT31;54562;47.620;18.786;2022-10-20T07:51:16;10.66;69.21
67759;SHT31;54562;47.620;18.786;2022-10-20T07:54:32;10.72;69.22
67759;SHT31;54562;47.620;18.786;2022-10-20T07:57:40;10.80;68.85
67759;SHT31;54562;47.620;18.786;2022-10-20T08:00:48;10.85;68.28
67759;SHT31;54562;47.620;18.786;2022-10-20T08:03:58;10.91;68.41
67759;SHT31;54562;47.620;18.786;2022-10-20T08:07:06;11.00;67.89
67759;SHT31;54562;47.620;18.786;2022-10-20T08:10:15;11.08;67.91
67759;SHT31;54562;47.620;18.786;2022-10-20T08:13:23;11.15;67.68
67759;SHT31;54562;47.620;18.786;2022-10-20T08:16:31;11.26;67.76
67759;SHT31;54562;47.620;18.786;2022-10-20T08:19:45;11.42;67.42
67759;SHT31;54562;47.620;18.786;2022-10-20T08:23:10;11.49;66.86
67759;SHT31;54562;47.620;18.786;2022-10-20T08:26:19;11.53;66.50
67759;SHT31;54562;47.620;18.786;2022-10-20T08:29:29;11.57;66.42
67759;SHT31;54562;47.620;18.786;2022-10-20T08:32:37;11.65;66.50
67759;SHT31;54562;47.620;18.786;2022-10-20T08:35:45;11.77;66.28
67759;SHT31;54562;47.620;18.786;2022-10-20T08:38:53;11.81;65.95
67759;SHT31;54562;47.620;18.786;2022-10-20T08:42:08;11.93;65.93
67759;SHT31;54562;47.620;18.786;2022-10-20T08:45:18;12.06;65.82
67759;SHT31;54562;47.620;18.786;2022-10-20T08:48:30;12.20;65.28
67759;SHT31;54562;47.620;18.786;2022-10-20T08:51:40;12.31;64.77
67759;SHT31;54562;47.620;18.786;2022-10-20T08:54:50;12.40;64.13
67759;SHT31;54562;47.620;18.786;2022-10-20T08:58:01;12.50;64.26
67759;SHT31;54562;47.620;18.786;2022-10-20T09:01:16;12.62;63.46
67759;SHT31;54562;47.620;18.786;2022-10-20T09:04:31;12.71;63.17
67759;SHT31;54562;47.620;18.786;2022-10-20T09:07:49;12.78;63.24
67759;SHT31;54562;47.620;18.786;2022-10-20T09:11:00;12.92;62.58
67759;SHT31;54562;47.620;18.786;2022-10-20T09:14:11;13.04;62.45
67759;SHT31;54562;47.620;18.786;2022-10-20T09:17:19;13.13;62.16
67759;SHT31;54562;47.620;18.786;2022-10-20T09:20:28;13.24;61.62
67759;SHT31;54562;47.620;18.786;2022-10-20T09:23:44;13.30;61.40
67759;SHT31;54562;47.620;18.786;2022-10-20T09:27:14;13.43;61.37
67759;SHT31;54562;47.620;18.786;2022-10-20T09:30:32;13.63;61.22
67759;SHT31;54562;47.620;18.786;2022-10-20T09:33:40;13.79;60.85
67759;SHT31;54562;47.620;18.786;2022-10-20T09:36:49;13.92;60.57
67759;SHT31;54562;47.620;18.786;2022-10-20T09:40:01;14.00;59.83
67759;SHT31;54562;47.620;18.786;2022-10-20T09:43:17;14.08;59.79
67759;SHT31;54562;47.620;18.786;2022-10-20T09:46:26;14.16;59.26
67759;SHT31;54562;47.620;18.786;2022-10-20T09:49:53;14.23;59.03
67759;SHT31;54562;47.620;18.786;2022-10-20T09:53:05;14.36;58.20
67759;SHT31;54562;47.620;18.786;2022-10-20T09:56:25;14.33;57.94
67759;SHT31;54562;47.620;18.786;2022-10-20T09:59:37;14.48;58.21
67759;SHT31;54562;47.620;18.786;2022-10-20T10:02:50;14.61;57.80
67759;SHT31;54562;47.620;18.786;2022-10-20T10:06:27;14.73;57.00
67759;SHT31;54562;47.620;18.786;2022-10-20T10:09:49;14.76;56.58
67759;SHT31;54562;47.620;18.786;2022-10-20T10:13:17;14.78;56.45
67759;SHT31;54562;47.620;18.786;2022-10-20T10:16:37;14.79;56.02
67759;SHT31;54562;47.620;18.786;2022-10-20T10:19:47;14.87;56.92
67759;SHT31;54562;47.620;18.786;2022-10-20T10:23:07;15.08;56.10
67759;SHT31;54562;47.620;18.786;2022-10-20T10:33:35;15.33;55.13
67759;SHT31;54562;47.620;18.786;2022-10-20T10:36:43;15.48;54.33
67759;SHT31;54562;47.620;18.786;2022-10-20T10:39:52;15.47;53.31
67759;SHT31;54562;47.620;18.786;2022-10-20T10:43:09;15.44;53.06
67759;SHT31;54562;47.620;18.786;2022-10-20T10:46:39;15.51;53.29
67759;SHT31;54562;47.620;18.786;2022-10-20T10:50:00;15.65;52.99
67759;SHT31;54562;47.620;18.786;2022-10-20T10:53:38;15.83;52.63
67759;SHT31;54562;47.620;18.786;2022-10-20T10:57:01;15.95;52.20
67759;SHT31;54562;47.620;18.786;2022-10-20T11:00:20;16.05;52.08
67759;SHT31;54562;47.620;18.786;2022-10-20T11:03:53;16.12;51.75
67759;SHT31;54562;47.620;18.786;2022-10-20T11:07:23;16.18;52.17
67759;SHT31;54562;47.620;18.786;2022-10-20T11:10:47;16.27;51.47
67759;SHT31;54562;47.620;18.786;2022-10-20T11:14:10;16.30;51.19
67759;SHT31;54562;47.620;18.786;2022-10-20T11:17:37;16.29;50.83
67759;SHT31;54562;47.620;18.786;2022-10-20T11:21:04;16.11;49.70
67759;SHT31;54562;47.620;18.786;2022-10-20T11:24:28;15.95;50.49
67759;SHT31;54562;47.620;18.786;2022-10-20T11:27:49;15.87;50.61
67759;SHT31;54562;47.620;18.786;2022-10-20T11:30:59;15.84;50.77
67759;SHT31;54562;47.620;18.786;2022-10-20T11:34:11;15.80;50.23
67759;SHT31;54562;47.620;18.786;2022-10-20T11:37:26;15.83;50.55
67759;SHT31;54562;47.620;18.786;2022-10-20T11:40:42;15.81;50.77
67759;SHT31;54562;47.620;18.786;2022-10-20T11:44:07;15.87;51.03
67759;SHT31;54562;47.620;18.786;2022-10-20T11:47:24;15.91;50.19
67759;SHT31;54562;47.620;18.786;2022-10-20T11:50:39;15.89;49.99
67759;SHT31;54562;47.620;18.786;2022-10-20T11:54:00;15.82;49.97
67759;SHT31;54562;47.620;18.786;2022-10-20T11:57:47;15.87;49.75
67759;SHT31;54562;47.620;18.786;2022-10-20T12:01:26;15.88;49.72
67759;SHT31;54562;47.620;18.786;2022-10-20T12:08:37;15.83;49.19
67759;SHT31;54562;47.620;18.786;2022-10-20T12:12:06;15.86;49.08
67759;SHT31;54562;47.620;18.786;2022-10-20T12:15:23;15.76;49.11
67759;SHT31;54562;47.620;18.786;2022-10-20T12:18:33;15.78;48.81
67759;SHT31;54562;47.620;18.786;2022-10-20T12:21:54;15.77;48.50
67759;SHT31;54562;47.620;18.786;2022-10-20T12:25:31;15.72;48.66
67759;SHT31;54562;47.620;18.786;2022-10-20T12:28:43;15.76;48.58
67759;SHT31;54562;47.620;18.786;2022-10-20T12:39:30;15.83;47.91
67759;SHT31;54562;47.620;18.786;2022-10-20T12:42:40;15.85;48.00
67759;SHT31;54562;47.620;18.786;2022-10-20T12:45:57;15.94;48.39
67759;SHT31;54562;47.620;18.786;2022-10-20T12:49:19;16.14;47.83
67759;SHT31;54562;47.620;18.786;2022-10-20T12:52:35;16.28;47.38
67759;SHT31;54562;47.620;18.786;2022-10-20T12:55:45;16.40;47.17
67759;SHT31;54562;47.620;18.786;2022-10-20T12:59:18;16.60;47.23
67759;SHT31;54562;47.620;18.786;2022-10-20T13:02:48;16.82;46.74
67759;SHT31;54562;47.620;18.786;2022-10-20T13:05:58;16.81;45.97
67759;SHT31;54562;47.620;18.786;2022-10-20T13:09:28;16.88;46.72
67759;SHT31;54562;47.620;18.786;2022-10-20T13:13:28;17.18;45.91
67759;SHT31;54562;47.620;18.786;2022-10-20T13:17:14;17.56;45.48
67759;SHT31;54562;47.620;18.786;2022-10-20T13:20:38;17.63;44.62
67759;SHT31;54562;47.620;18.786;2022-10-20T13:23:55;17.59;44.17
67759;SHT31;54562;47.620;18.786;2022-10-20T13:27:13;17.49;44.24
67759;SHT31;54562;47.620;18.786;2022-10-20T13:30:22;17.47;44.67
67759;SHT31;54562;47.620;18.786;2022-10-20T13:33:32;17.50;44.09
67759;SHT31;54562;47.620;18.786;2022-10-20T13:37:12;17.44;44.54
67759;SHT31;54562;47.620;18.786;2022-10-20T13:40:37;17.50;44.41
67759;SHT31;54562;47.620;18.786;2022-10-20T13:44:08;17.40;43.66
67759;SHT31;54562;47.620;18.786;2022-10-20T13:47:38;17.15;44.44
67759;SHT31;54562;47.620;18.786;2022-10-20T13:50:55;17.18;44.52
67759;SHT31;54562;47.620;18.786;2022-10-20T13:54:06;17.12;44.05
67759;SHT31;54562;47.620;18.786;2022-10-20T13:57:26;16.95;44.49
67759;SHT31;54562;47.620;18.786;2022-10-20T14:00:38;16.83;44.48
67759;SHT31;54562;47.620;18.786;2022-10-20T14:03:59;16.72;44.86
67759;SHT31;54562;47.620;18.786;2022-10-20T14:07:23;16.45;44.76
67759;SHT31;54562;47.620;18.786;2022-10-20T14:10:41;16.15;45.35
67759;SHT31;54562;47.620;18.786;2022-10-20T14:13:59;15.92;45.53
67759;SHT31;54562;47.620;18.786;2022-10-20T14:17:15;15.56;46.48
67759;SHT31;54562;47.620;18.786;2022-10-20T14:20:27;15.40;46.90
67759;SHT31;54562;47.620;18.786;2022-10-20T14:23:39;15.21;46.87
67759;SHT31;54562;47.620;18.786;2022-10-20T14:26:51;15.06;47.72
67759;SHT31;54562;47.620;18.786;2022-10-20T14:30:06;14.96;47.72
67759;SHT31;54562;47.620;18.786;2022-10-20T14:33:21;14.88;48.03
67759;SHT31;54562;47.620;18.786;2022-10-20T14:36:30;14.77;48.11
67759;SHT31;54562;47.620;18.786;2022-10-20T14:39:48;14.60;48.57
67759;SHT31;54562;47.620;18.786;2022-10-20T14:43:00;14.56;48.89
67759;SHT31;54562;47.620;18.786;2022-10-20T14:46:21;14.54;48.90
67759;SHT31;54562;47.620;18.786;2022-10-20T14:49:35;14.49;48.88
67759;SHT31;54562;47.620;18.786;2022-10-20T14:52:54;14.41;49.12
67759;SHT31;54562;47.620;18.786;2022-10-20T14:56:22;14.27;49.40
67759;SHT31;54562;47.620;18.786;2022-10-20T14:59:31;14.15;49.75
67759;SHT31;54562;47.620;18.786;2022-10-20T15:02:53;14.02;50.09
67759;SHT31;54562;47.620;18.786;2022-10-20T15:06:07;13.89;50.33
67759;SHT31;54562;47.620;18.786;2022-10-20T15:09:22;13.76;50.63
67759;SHT31;54562;47.620;18.786;2022-10-20T15:12:39;13.60;50.76
67759;SHT31;54562;47.620;18.786;2022-10-20T15:15:51;13.50;51.07
67759;SHT31;54562;47.620;18.786;2022-10-20T15:19:22;13.39;51.42
67759;SHT31;54562;47.620;18.786;2022-10-20T15:22:42;13.22;51.68
67759;SHT31;54562;47.620;18.786;2022-10-20T15:25:54;13.09;52.08
67759;SHT31;54562;47.620;18.786;2022-10-20T15:29:06;13.03;52.38
67759;SHT31;54562;47.620;18.786;2022-10-20T15:32:15;12.93;52.61
67759;SHT31;54562;47.620;18.786;2022-10-20T15:35:23;12.82;52.89
67759;SHT31;54562;47.620;18.786;2022-10-20T15:38:33;12.71;53.12
67759;SHT31;54562;47.620;18.786;2022-10-20T15:41:39;12.60;53.36
67759;SHT31;54562;47.620;18.786;2022-10-20T15:44:51;12.51;53.69
67759;SHT31;54562;47.620;18.786;2022-10-20T15:47:59;12.41;54.03
67759;SHT31;54562;47.620;18.786;2022-10-20T15:51:09;12.29;54.21
67759;SHT31;54562;47.620;18.786;2022-10-20T15:54:22;12.14;54.58
67759;SHT31;54562;47.620;18.786;2022-10-20T15:57:30;12.00;54.83
67759;SHT31;54562;47.620;18.786;2022-10-20T16:00:38;11.84;55.10
67759;SHT31;54562;47.620;18.786;2022-10-20T16:03:46;11.70;55.47
67759;SHT31;54562;47.620;18.786;2022-10-20T16:06:55;11.52;55.89
67759;SHT31;54562;47.620;18.786;2022-10-20T16:10:06;11.32;56.42
67759;SHT31;54562;47.620;18.786;2022-10-20T16:13:14;11.17;56.92
67759;SHT31;54562;47.620;18.786;2022-10-20T16:16:23;11.02;57.38
67759;SHT31;54562;47.620;18.786;2022-10-20T16:19:31;10.86;57.88
67759;SHT31;54562;47.620;18.786;2022-10-20T16:22:39;10.71;58.42
67759;SHT31;54562;47.620;18.786;2022-10-20T16:25:47;10.55;58.87
67759;SHT31;54562;47.620;18.786;2022-10-20T16:28:56;10.44;59.28
67759;SHT31;54562;47.620;18.786;2022-10-20T16:32:04;10.35;59.69
67759;SHT31;54562;47.620;18.786;2022-10-20T16:35:12;10.28;60.00
67759;SHT31;54562;47.620;18.786;2022-10-20T16:38:20;10.22;60.30
67759;SHT31;54562;47.620;18.786;2022-10-20T16:50:07;9.87;61.64
67759;SHT31;54562;47.620;18.786;2022-10-20T16:56:39;9.67;62.48
67759;SHT31;54562;47.620;18.786;2022-10-20T16:59:55;9.58;62.90
67759;SHT31;54562;47.620;18.786;2022-10-20T17:03:14;9.50;63.30
67759;SHT31;54562;47.620;18.786;2022-10-20T17:06:28;9.43;63.72
67759;SHT31;54562;47.620;18.786;2022-10-20T17:09:44;9.36;64.00
67759;SHT31;54562;47.620;18.786;2022-10-20T17:13:03;9.31;64.39
67759;SHT31;54562;47.620;18.786;2022-10-20T17:16:21;9.25;64.68
67759;SHT31;54562;47.620;18.786;2022-10-20T17:19:39;9.20;64.87
67759;SHT31;54562;47.620;18.786;2022-10-20T17:22:54;9.16;65.13
67759;SHT31;54562;47.620;18.786;2022-10-20T17:26:13;9.13;65.28
67759;SHT31;54562;47.620;18.786;2022-10-20T17:29:29;9.14;65.47
67759;SHT31;54562;47.620;18.786;2022-10-20T17:32:46;9.16;65.53
67759;SHT31;54562;47.620;18.786;2022-10-20T17:36:03;9.18;65.58
67759;SHT31;54562;47.620;18.786;2022-10-20T17:39:28;9.20;65.57
67759;SHT31;54562;47.620;18.786;2022-10-20T17:42:43;9.22;65.67
67759;SHT31;54562;47.620;18.786;2022-10-20T17:45:59;9.30;65.63
67759;SHT31;54562;47.620;18.786;2022-10-20T17:49:24;9.35;65.61
67759;SHT31;54562;47.620;18.786;2022-10-20T17:52:32;9.36;65.63
67759;SHT31;54562;47.620;18.786;2022-10-20T17:55:41;9.36;65.66
67759;SHT31;54562;47.620;18.786;2022-10-20T17:58:50;9.36;65.66
67759;SHT31;54562;47.620;18.786;2022-10-20T18:02:02;9.32;65.65
67759;SHT31;54562;47.620;18.786;2022-10-20T18:05:10;9.29;65.79
67759;SHT31;54562;47.620;18.786;2022-10-20T18:08:18;9.27;65.84
67759;SHT31;54562;47.620;18.786;2022-10-20T18:14:34;9.24;66.01
67759;SHT31;54562;47.620;18.786;2022-10-20T18:17:42;9.22;66.07
67759;SHT31;54562;47.620;18.786;2022-10-20T18:20:56;9.22;66.07
67759;SHT31;54562;47.620;18.786;2022-10-20T18:24:04;9.23;66.05
67759;SHT31;54562;47.620;18.786;2022-10-20T18:27:16;9.23;66.00
67759;SHT31;54562;47.620;18.786;2022-10-20T18:30:27;9.22;66.01
67759;SHT31;54562;47.620;18.786;2022-10-20T18:33:34;9.21;66.07
67759;SHT31;54562;47.620;18.786;2022-10-20T18:36:43;9.21;66.11
67759;SHT31;54562;47.620;18.786;2022-10-20T18:39:53;9.21;66.13
67759;SHT31;54562;47.620;18.786;2022-10-20T18:43:01;9.18;66.13
67759;SHT31;54562;47.620;18.786;2022-10-20T18:46:09;9.16;66.18
67759;SHT31;54562;47.620;18.786;2022-10-20T18:49:18;9.15;66.18
67759;SHT31;54562;47.620;18.786;2022-10-20T18:52:26;9.17;66.19
67759;SHT31;54562;47.620;18.786;2022-10-20T18:55:34;9.17;66.14
67759;SHT31;54562;47.620;18.786;2022-10-20T18:58:46;9.18;66.15
67759;SHT31;54562;47.620;18.786;2022-10-20T19:01:55;9.20;66.13
67759;SHT31;54562;47.620;18.786;2022-10-20T19:05:04;9.22;66.08
67759;SHT31;54562;47.620;18.786;2022-10-20T19:08:13;9.22;66.06
67759;SHT31;54562;47.620;18.786;2022-10-20T19:11:22;9.20;66.05
67759;SHT31;54562;47.620;18.786;2022-10-20T19:14:32;9.20;66.09
67759;SHT31;54562;47.620;18.786;2022-10-20T19:17:40;9.20;66.03
67759;SHT31;54562;47.620;18.786;2022-10-20T19:20:58;9.16;66.08
67759;SHT31;54562;47.620;18.786;2022-10-20T19:24:10;9.15;66.08
67759;SHT31;54562;47.620;18.786;2022-10-20T19:27:22;9.15;66.06
67759;SHT31;54562;47.620;18.786;2022-10-20T19:30:33;9.16;66.07
67759;SHT31;54562;47.620;18.786;2022-10-20T19:33:41;9.18;66.08
67759;SHT31;54562;47.620;18.786;2022-10-20T19:36:51;9.20;66.01
67759;SHT31;54562;47.620;18.786;2022-10-20T19:39:59;9.22;65.99
67759;SHT31;54562;47.620;18.786;2022-10-20T19:43:09;9.24;65.93
67759;SHT31;54562;47.620;18.786;2022-10-20T19:46:18;9.29;65.81
67759;SHT31;54562;47.620;18.786;2022-10-20T19:49:27;9.30;65.72
67759;SHT31;54562;47.620;18.786;2022-10-20T19:52:35;9.27;65.72
67759;SHT31;54562;47.620;18.786;2022-10-20T19:55:46;9.24;65.76
67759;SHT31;54562;47.620;18.786;2022-10-20T19:58:58;9.16;65.82
67759;SHT31;54562;47.620;18.786;2022-10-20T20:02:08;9.04;66.02
67759;SHT31;54562;47.620;18.786;2022-10-20T20:05:16;8.98;66.32
67759;SHT31;54562;47.620;18.786;2022-10-20T20:08:25;8.90;66.49
67759;SHT31;54562;47.620;18.786;2022-10-20T20:11:33;8.82;66.78
67759;SHT31;54562;47.620;18.786;2022-10-20T20:14:43;8.73;67.07
67759;SHT31;54562;47.620;18.786;2022-10-20T20:17:52;8.69;67.28
67759;SHT31;54562;47.620;18.786;2022-10-20T20:21:02;8.63;67.51
67759;SHT31;54562;47.620;18.786;2022-10-20T20:24:11;8.61;67.75
67759;SHT31;54562;47.620;18.786;2022-10-20T20:27:21;8.61;67.97
67759;SHT31;54562;47.620;18.786;2022-10-20T20:30:29;8.59;68.14
67759;SHT31;54562;47.620;18.786;2022-10-20T20:33:37;8.59;68.20
67759;SHT31;54562;47.620;18.786;2022-10-20T20:36:45;8.57;68.39
67759;SHT31;54562;47.620;18.786;2022-10-20T20:39:54;8.58;68.54
67759;SHT31;54562;47.620;18.786;2022-10-20T20:43:01;8.58;68.57
67759;SHT31;54562;47.620;18.786;2022-10-20T20:46:11;8.59;68.60
67759;SHT31;54562;47.620;18.786;2022-10-20T20:49:21;8.59;68.62
67759;SHT31;54562;47.620;18.786;2022-10-20T20:52:29;8.58;68.67
67759;SHT31;54562;47.620;18.786;2022-10-20T20:55:36;8.57;68.65